Time;durP1;ratioP1;P1;durP2;ratioP2;P2;SDS_P1;SDS_P2;PMS_P1;PMS_P2;Temp;Humidity;BMP_temperature;BMP_pressure;BME280_temperature;BME280_humidity;BME280_pressure;Samples;Min_cycle;Max_cycle;Signal;HPM_P1;HPM_P2
2021/12/08 14:32:43;;;;;;;2.45;2.35;;;;;;;3.46;89.43;98207.09;5105197;27;1407683;-81
2021/12/08 14:35:09;;;;;;;3.95;3.70;;;;;;;3.90;86.33;98211.03;5129747;28;20126;-79
2021/12/08 14:37:35;;;;;;;1.65;1.58;;;;;;;3.76;86.67;98154.56;5130562;28;20385;-81
2021/12/08 14:40:03;;;;;;;1.27;1.15;;;;;;;3.96;86.61;98171.16;5120795;27;20023;-81
2021/12/08 14:42:31;;;;;;;0.60;0.60;;;;;;;4.39;86.58;98235.19;5109124;28;20023;-79
2021/12/08 14:45:06;;;;;;;1.08;1.02;;;;;;;4.37;86.52;98229.31;5109369;28;20032;-78
2021/12/08 14:47:37;;;;;;;2.63;2.42;;;;;;;4.33;86.67;98214.16;5109784;28;20070;-79
2021/12/08 14:50:20;;;;;;;2.70;2.03;;;;;;;4.40;86.34;98211.34;5109996;28;20032;-80
2021/12/08 14:52:45;;;;;;;1.70;1.58;;;;;;;4.28;85.75;98217.31;5109581;28;20020;-78
2021/12/08 14:55:19;;;;;;;1.42;1.42;;;;;;;4.23;86.25;98207.59;5110006;28;20456;-79
2021/12/08 14:57:46;;;;;;;1.65;1.55;;;;;;;4.31;86.04;98225.47;5109346;28;20051;-79
2021/12/08 15:00:29;;;;;;;2.63;2.05;;;;;;;-143.85;100.00;70650.75;5109024;28;20054;-77
2021/12/08 15:03:04;;;;;;;0.55;0.55;;;;;;;-143.85;100.00;70650.75;5108878;28;20502;-79
2021/12/08 15:05:31;;;;;;;1.75;1.65;;;;;;;-143.85;100.00;70650.75;5109102;28;20406;-79
2021/12/08 15:08:06;;;;;;;4.50;2.92;;;;;;;-143.85;100.00;70650.75;5108255;28;20035;-78
2021/12/08 15:10:32;;;;;;;0.85;0.85;;;;;;;-143.85;100.00;70650.75;5109043;28;20499;-78
2021/12/08 15:13:16;;;;;;;3.53;1.30;;;;;;;-143.85;100.00;70650.75;5108861;28;20063;-80
2021/12/08 15:15:45;;;;;;;0.38;0.38;;;;;;;-143.85;100.00;70650.75;5106937;28;20023;-81
2021/12/08 15:18:13;;;;;;;3.90;3.60;;;;;;;-143.85;100.00;70650.75;5106940;28;20509;-77
2021/12/08 15:20:40;;;;;;;3.35;3.00;;;;;;;-143.85;100.00;70650.75;5107657;28;20031;-77
2021/12/08 15:23:14;;;;;;;3.38;2.90;;;;;;;-143.85;100.00;70650.75;5107828;28;20032;-77
2021/12/08 15:25:42;;;;;;;2.17;2.05;;;;;;;-143.85;100.00;70650.75;5108301;28;20059;-77
2021/12/08 15:28:10;;;;;;;3.38;3.17;;;;;;;-143.85;100.00;70650.75;5108194;28;20034;-78
2021/12/08 15:30:52;;;;;;;5.05;3.97;;;;;;;-143.85;100.00;70650.75;5107729;28;20073;-79
2021/12/08 15:33:19;;;;;;;3.95;3.10;;;;;;;-143.85;100.00;70650.75;5107867;28;20032;-80
2021/12/08 15:35:47;;;;;;;0.73;0.73;;;;;;;-143.85;100.00;70650.75;5109144;28;20055;-78
2021/12/08 15:38:13;;;;;;;;;;;;;;;-143.85;100.00;70650.75;5108262;28;20034;-80
2021/12/08 15:40:59;;;;;;;30.08;12.02;;;;;;;-143.85;100.00;70650.75;5107633;28;19912;-80
2021/12/08 15:43:25;;;;;;;3.15;2.95;;;;;;;-143.85;100.00;70650.75;5097611;28;20036;-79
2021/12/08 15:45:55;;;;;;;0.93;0.88;;;;;;;-143.85;100.00;70650.75;5094202;28;20055;-80
2021/12/08 15:48:25;;;;;;;1.65;1.55;;;;;;;-143.85;100.00;70650.75;5094404;28;20466;-80
2021/12/08 15:50:57;;;;;;;1.25;1.25;;;;;;;-143.85;100.00;70650.75;5093909;28;20042;-79
2021/12/08 15:53:25;;;;;;;1.30;1.23;;;;;;;-143.85;100.00;70650.75;5094381;28;20062;-81
2021/12/08 15:56:15;;;;;;;2.40;1.27;;;;;;;-143.85;100.00;70650.75;5094001;28;20031;-79
2021/12/08 15:58:53;;;;;;;0.98;0.98;;;;;;;-143.85;100.00;70650.75;5093843;28;20062;-79
2021/12/08 16:01:20;;;;;;;;;;;;;;;-143.85;100.00;70650.75;5094173;28;20483;-80
2021/12/08 16:04:06;;;;;;;0.95;0.90;;;;;;;-143.85;100.00;70650.75;5094807;28;20338;-78
2021/12/08 16:06:42;;;;;;;6.70;2.33;;;;;;;-143.85;100.00;70650.75;5093585;28;20039;-78
2021/12/08 16:09:36;;;;;;;2.03;1.90;;;;;;;-143.85;100.00;70650.75;5093772;28;20038;-80
2021/12/08 16:12:02;;;;;;;0.40;0.40;;;;;;;-143.85;100.00;70650.75;5092717;28;20054;-80
2021/12/08 16:14:30;;;;;;;2.28;2.05;;;;;;;-143.85;100.00;70650.75;5093779;28;20492;-78
2021/12/08 16:17:20;;;;;;;1.92;1.83;;;;;;;-143.85;100.00;70650.75;5093803;28;20431;-80
2021/12/08 16:19:52;;;;;;;2.45;2.25;;;;;;;-143.85;100.00;70650.75;5093576;28;20055;-80
2021/12/08 16:22:22;;;;;;;3.20;2.42;;;;;;;-143.85;100.00;70650.75;5093670;28;20028;-80
2021/12/08 16:24:48;;;;;;;0.70;0.70;;;;;;;-143.85;100.00;70650.75;5093816;28;20040;-82
2021/12/08 16:27:18;;;;;;;1.77;1.67;;;;;;;-143.85;100.00;70650.75;5094352;28;20571;-80
2021/12/08 16:29:44;;;;;;;0.95;0.95;;;;;;;-143.85;100.00;70650.75;5093552;28;20081;-80
2021/12/08 16:32:15;;;;;;;2.72;2.05;;;;;;;-143.85;100.00;70650.75;5093064;28;20421;-78
2021/12/08 16:34:40;;;;;;;1.83;1.77;;;;;;;-143.85;100.00;70650.75;5093134;28;20032;-78
2021/12/08 16:37:08;;;;;;;1.65;1.58;;;;;;;-143.85;100.00;70650.75;5093141;28;20031;-80
2021/12/08 16:39:55;;;;;;;3.05;2.03;;;;;;;-143.85;100.00;70650.75;5094345;28;20020;-79
2021/12/08 16:45:12;;;;;;;1.88;1.77;;;;;;;-143.85;100.00;70650.75;5094870;28;20783;-80
2021/12/08 16:47:38;;;;;;;4.90;4.57;;;;;;;-143.85;100.00;70650.75;5092972;28;20131;-80
2021/12/08 16:50:07;;;;;;;2.28;1.98;;;;;;;-143.85;100.00;70650.75;5092909;28;20495;-79
2021/12/08 16:52:33;;;;;;;2.05;1.42;;;;;;;-143.85;100.00;70650.75;5092753;28;20028;-79
2021/12/08 16:54:58;;;;;;;0.80;0.80;;;;;;;-143.85;100.00;70650.75;5091969;28;20072;-77
2021/12/08 16:57:24;;;;;;;3.10;2.88;;;;;;;-143.85;100.00;70650.75;5092768;28;20499;-78
2021/12/08 16:59:50;;;;;;;0.93;0.93;;;;;;;-143.85;100.00;70650.75;5094440;28;20065;-78
2021/12/08 17:02:17;;;;;;;1.85;1.80;;;;;;;-143.85;100.00;70650.75;5094037;28;20028;-79
2021/12/08 17:04:43;;;;;;;2.65;2.30;;;;;;;-143.85;100.00;70650.75;5092629;28;20024;-80
2021/12/08 17:07:10;;;;;;;1.23;1.23;;;;;;;-143.85;100.00;70650.75;5092604;28;20036;-80
2021/12/08 17:09:36;;;;;;;1.40;1.30;;;;;;;-143.85;100.00;70650.75;5093840;28;20039;-81
2021/12/08 17:12:02;;;;;;;2.90;1.98;;;;;;;-143.85;100.00;70650.75;5092549;28;20024;-82
2021/12/08 17:14:27;;;;;;;1.00;1.00;;;;;;;-143.85;100.00;70650.75;5092404;28;20150;-79
2021/12/08 17:16:53;;;;;;;0.85;0.85;;;;;;;-143.85;100.00;70650.75;5092459;28;20020;-79
2021/12/08 17:19:20;;;;;;;1.63;1.52;;;;;;;-143.85;100.00;70650.75;5092363;28;20035;-78
2021/12/08 17:21:47;;;;;;;1.63;1.40;;;;;;;-143.85;100.00;70650.75;5092172;28;20043;-81
2021/12/08 17:24:13;;;;;;;1.50;1.50;;;;;;;-143.85;100.00;70650.75;5092470;28;20115;-80
2021/12/08 17:26:40;;;;;;;2.22;2.15;;;;;;;-143.85;100.00;70650.75;5094019;28;20031;-81
2021/12/08 17:29:09;;;;;;;4.32;3.13;;;;;;;-143.85;100.00;70650.75;5092467;28;20119;-78
2021/12/08 17:31:36;;;;;;;1.00;1.00;;;;;;;-143.85;100.00;70650.75;5092445;28;20052;-78
2021/12/08 17:34:02;;;;;;;3.33;2.78;;;;;;;-143.85;100.00;70650.75;5093737;28;20031;-80
2021/12/08 17:36:29;;;;;;;5.32;3.28;;;;;;;-143.85;100.00;70650.75;5093848;28;20032;-81
2021/12/08 17:38:57;;;;;;;2.05;1.88;;;;;;;-143.85;100.00;70650.75;5092566;28;20023;-78
2021/12/08 17:41:23;;;;;;;2.40;2.20;;;;;;;-143.85;100.00;70650.75;5091815;28;20050;-80
2021/12/08 17:43:50;;;;;;;2.78;2.67;;;;;;;-143.85;100.00;70650.75;5092006;28;20483;-80
2021/12/08 17:46:15;;;;;;;1.25;1.25;;;;;;;-143.85;100.00;70650.75;5092077;28;20120;-82
2021/12/08 17:48:41;;;;;;;2.10;2.00;;;;;;;-143.85;100.00;70650.75;5092544;28;20115;-80
2021/12/08 17:51:10;;;;;;;0.82;0.82;;;;;;;-143.85;100.00;70650.75;5091835;28;20113;-79
2021/12/08 17:53:41;;;;;;;2.38;2.28;;;;;;;-143.85;100.00;70650.75;5093171;28;20017;-78
2021/12/08 17:56:08;;;;;;;4.32;1.35;;;;;;;-143.85;100.00;70650.75;5092257;28;20039;-81
2021/12/08 17:58:35;;;;;;;1.23;1.23;;;;;;;-143.85;100.00;70650.75;5091652;28;20409;-80
2021/12/08 18:01:03;;;;;;;1.75;1.65;;;;;;;-143.85;100.00;70650.75;5091773;28;20039;-80
2021/12/08 18:03:29;;;;;;;1.00;1.00;;;;;;;-143.85;100.00;70650.75;5091973;28;20028;-80
2021/12/08 18:05:55;;;;;;;4.45;3.97;;;;;;;-143.85;100.00;70650.75;5091099;28;20028;-80
2021/12/08 18:08:23;;;;;;;11.13;3.22;;;;;;;-143.85;100.00;70650.75;5091538;28;20039;-80
2021/12/08 18:10:51;;;;;;;0.93;0.93;;;;;;;-143.85;100.00;70650.75;5091430;28;20027;-81
2021/12/08 18:13:17;;;;;;;1.30;1.30;;;;;;;-143.85;100.00;70650.75;5091383;28;20028;-80
2021/12/08 18:15:43;;;;;;;0.90;0.90;;;;;;;-143.85;100.00;70650.75;5092638;28;20034;-80
2021/12/08 18:18:09;;;;;;;0.73;0.73;;;;;;;-143.85;100.00;70650.75;5091518;28;20028;-82
2021/12/08 18:20:35;;;;;;;1.00;1.00;;;;;;;-143.85;100.00;70650.75;5091585;28;20062;-80
2021/12/08 18:23:02;;;;;;;2.90;2.75;;;;;;;-143.85;100.00;70650.75;5091444;28;20372;-79
2021/12/08 18:25:28;;;;;;;0.30;0.30;;;;;;;-143.85;100.00;70650.75;5091416;28;20036;-77
2021/12/08 18:27:54;;;;;;;2.70;2.50;;;;;;;-143.85;100.00;70650.75;5091351;28;20027;-78
2021/12/08 18:30:22;;;;;;;0.52;0.52;;;;;;;-143.85;100.00;70650.75;5091487;28;20032;-77
2021/12/08 18:32:48;;;;;;;0.95;0.95;;;;;;;-143.85;100.00;70650.75;5090951;28;20060;-78
2021/12/08 18:35:27;;;;;;;0.80;0.80;;;;;;;-143.85;100.00;70650.75;5091027;28;20116;-79
2021/12/08 18:38:04;;;;;;;0.70;0.70;;;;;;;-143.85;100.00;70650.75;5092624;28;20445;-79
2021/12/08 18:40:32;;;;;;;0.82;0.82;;;;;;;-143.85;100.00;70650.75;5091391;28;20016;-81
2021/12/08 18:42:58;;;;;;;3.15;2.33;;;;;;;-143.85;100.00;70650.75;5090963;28;20055;-80
2021/12/08 18:45:24;;;;;;;1.45;1.45;;;;;;;-143.85;100.00;70650.75;5091106;28;20471;-79
2021/12/08 18:47:49;;;;;;;0.43;0.43;;;;;;;-143.85;100.00;70650.75;5091012;28;20020;-80
2021/12/08 18:50:16;;;;;;;0.40;0.40;;;;;;;-143.85;100.00;70650.75;5091021;28;20418;-77
2021/12/08 18:52:41;;;;;;;4.45;4.03;;;;;;;-143.85;100.00;70650.75;5090734;28;20036;-81
2021/12/08 18:55:08;;;;;;;1.77;1.48;;;;;;;-143.85;100.00;70650.75;5089889;28;20137;-78
2021/12/08 18:57:34;;;;;;;5.15;1.00;;;;;;;-143.85;100.00;70650.75;5091030;28;20522;-79
2021/12/08 19:00:00;;;;;;;3.45;1.77;;;;;;;-143.85;100.00;70650.75;5092107;28;20090;-80
2021/12/08 19:02:26;;;;;;;4.65;1.63;;;;;;;-143.85;100.00;70650.75;5092122;28;20086;-82
2021/12/08 19:04:53;;;;;;;3.03;1.42;;;;;;;-143.85;100.00;70650.75;5090589;28;20032;-80
2021/12/08 19:07:18;;;;;;;2.00;1.50;;;;;;;-143.85;100.00;70650.75;5092220;28;20111;-81
2021/12/08 19:09:44;;;;;;;1.52;1.45;;;;;;;-143.85;100.00;70650.75;5090468;28;20111;-80
2021/12/08 19:12:10;;;;;;;1.40;1.30;;;;;;;-143.85;100.00;70650.75;5090711;28;20028;-80
2021/12/08 19:14:35;;;;;;;1.80;1.70;;;;;;;-143.85;100.00;70650.75;5091010;28;20024;-81
2021/12/08 19:17:01;;;;;;;3.28;3.05;;;;;;;-143.85;100.00;70650.75;5090781;28;20028;-82
2021/12/08 19:19:26;;;;;;;0.80;0.80;;;;;;;-143.85;100.00;70650.75;5094422;28;20016;-81
2021/12/08 19:21:52;;;;;;;1.50;1.45;;;;;;;-143.85;100.00;70650.75;5095024;28;20059;-80
2021/12/08 19:24:19;;;;;;;3.35;2.05;;;;;;;-143.85;100.00;70650.75;5094481;28;20024;-81
2021/12/08 19:26:45;;;;;;;2.40;2.30;;;;;;;-143.85;100.00;70650.75;5094463;28;20102;-80
2021/12/08 19:29:11;;;;;;;0.70;0.70;;;;;;;-143.85;100.00;70650.75;5094723;28;20042;-79
2021/12/08 19:31:39;;;;;;;1.52;1.17;;;;;;;-143.85;100.00;70650.75;5094045;28;20044;-80
2021/12/08 19:34:05;;;;;;;;;;;;;;;-143.85;100.00;70650.75;5094772;28;20040;-79
2021/12/08 19:36:30;;;;;;;0.45;0.45;;;;;;;-143.85;100.00;70650.75;5094395;28;20010;-79
2021/12/08 19:38:57;;;;;;;1.55;1.48;;;;;;;-143.85;100.00;70650.75;5093981;28;20140;-79
2021/12/08 19:41:24;;;;;;;0.95;0.95;;;;;;;-143.85;100.00;70650.75;5094190;28;20096;-80
2021/12/08 19:43:51;;;;;;;3.58;3.38;;;;;;;-143.85;100.00;70650.75;5094659;28;20470;-80
2021/12/08 19:46:17;;;;;;;1.55;1.55;;;;;;;-143.85;100.00;70650.75;5095417;28;20076;-80
2021/12/08 19:48:45;;;;;;;10.75;3.58;;;;;;;-143.85;100.00;70650.75;5093891;28;20035;-81
2021/12/08 19:51:11;;;;;;;1.40;1.30;;;;;;;-143.85;100.00;70650.75;5094690;28;20024;-82
2021/12/08 19:53:37;;;;;;;1.58;1.58;;;;;;;-143.85;100.00;70650.75;5094430;28;20472;-82
2021/12/08 19:56:04;;;;;;;1.65;1.13;;;;;;;-143.85;100.00;70650.75;5094101;28;20119;-82
2021/12/08 19:58:30;;;;;;;2.17;1.63;;;;;;;-143.85;100.00;70650.75;5094321;28;20063;-82
2021/12/08 20:00:55;;;;;;;1.67;1.60;;;;;;;-143.85;100.00;70650.75;5093619;28;20346;-83
2021/12/08 20:03:22;;;;;;;1.52;1.42;;;;;;;-143.85;100.00;70650.75;5094232;28;20031;-82
2021/12/08 20:05:48;;;;;;;0.85;0.85;;;;;;;-143.85;100.00;70650.75;5095426;28;20036;-82
2021/12/08 20:08:14;;;;;;;2.35;2.25;;;;;;;-143.85;100.00;70650.75;5093826;28;20024;-83
2021/12/08 20:10:41;;;;;;;0.75;0.75;;;;;;;-143.85;100.00;70650.75;5093588;28;20081;-82
2021/12/08 20:13:08;;;;;;;1.33;1.33;;;;;;;-143.85;100.00;70650.75;5094272;28;20035;-82
2021/12/08 20:15:36;;;;;;;4.20;3.25;;;;;;;-143.85;100.00;70650.75;5095256;28;20060;-81
2021/12/08 20:18:03;;;;;;;;;;;;;;;-143.85;100.00;70650.75;5094301;28;20063;-82
2021/12/08 20:20:28;;;;;;;0.95;0.95;;;;;;;-143.85;100.00;70650.75;5094147;28;19915;-82
2021/12/08 20:22:54;;;;;;;2.95;1.83;;;;;;;-143.85;100.00;70650.75;5093712;28;20430;-83
2021/12/08 20:25:20;;;;;;;0.45;0.45;;;;;;;-143.85;100.00;70650.75;5093340;28;20028;-81
2021/12/08 20:27:48;;;;;;;2.70;2.60;;;;;;;-143.85;100.00;70650.75;5093790;28;20039;-81
2021/12/08 20:30:16;;;;;;;0.95;0.95;;;;;;;-143.85;100.00;70650.75;5093788;28;20032;-79
2021/12/08 20:32:43;;;;;;;3.38;2.63;;;;;;;-143.85;100.00;70650.75;5093424;28;20528;-80
2021/12/08 20:35:11;;;;;;;1.17;1.17;;;;;;;-143.85;100.00;70650.75;5093583;28;20394;-81
2021/12/08 20:37:36;;;;;;;0.98;0.98;;;;;;;-143.85;100.00;70650.75;5093645;28;20480;-80
2021/12/08 20:40:05;;;;;;;2.00;1.75;;;;;;;-143.85;100.00;70650.75;5093855;28;20034;-80
2021/12/08 20:42:31;;;;;;;0.88;0.88;;;;;;;-143.85;100.00;70650.75;5093065;28;20062;-79
2021/12/08 20:44:56;;;;;;;0.45;0.45;;;;;;;-143.85;100.00;70650.75;5093109;28;20024;-80
2021/12/08 20:47:22;;;;;;;1.10;1.10;;;;;;;-143.85;100.00;70650.75;5092878;28;20483;-79
2021/12/08 20:49:47;;;;;;;1.75;1.75;;;;;;;-143.85;100.00;70650.75;5093123;28;20035;-81
2021/12/08 20:52:13;;;;;;;1.08;1.08;;;;;;;-143.85;100.00;70650.75;5093225;28;20028;-80
2021/12/08 20:54:38;;;;;;;0.95;0.95;;;;;;;-143.85;100.00;70650.75;5092856;28;20028;-81
2021/12/08 20:57:07;;;;;;;1.55;1.45;;;;;;;-143.85;100.00;70650.75;5093047;28;20111;-78
2021/12/08 20:59:38;;;;;;;1.63;1.60;;;;;;;-143.85;100.00;70650.75;5092866;28;20552;-79
2021/12/08 21:02:08;;;;;;;2.60;2.17;;;;;;;-143.85;100.00;70650.75;5092783;28;20032;-78
2021/12/08 21:04:34;;;;;;;0.52;0.52;;;;;;;-143.85;100.00;70650.75;5092759;28;20487;-82
2021/12/08 21:07:02;;;;;;;2.30;2.20;;;;;;;-143.85;100.00;70650.75;5093182;28;20038;-81
2021/12/08 21:09:28;;;;;;;0.40;0.40;;;;;;;-143.85;100.00;70650.75;5092685;28;20111;-82
2021/12/08 21:11:56;;;;;;;1.17;1.13;;;;;;;-143.85;100.00;70650.75;5092688;28;20119;-82
2021/12/08 21:14:23;;;;;;;1.45;1.38;;;;;;;-143.85;100.00;70650.75;5092601;28;20077;-81
2021/12/08 21:16:49;;;;;;;0.50;0.50;;;;;;;-143.85;100.00;70650.75;5093657;28;20028;-80
2021/12/08 21:19:16;;;;;;;0.52;0.52;;;;;;;-143.85;100.00;70650.75;5092443;28;20035;-79
2021/12/08 21:21:42;;;;;;;0.75;0.75;;;;;;;-143.85;100.00;70650.75;5092428;28;20036;-79
2021/12/08 21:24:07;;;;;;;1.77;1.67;;;;;;;-143.85;100.00;70650.75;5092156;28;20038;-80
2021/12/08 21:26:34;;;;;;;1.60;1.50;;;;;;;-143.85;100.00;70650.75;5092238;28;20027;-80
2021/12/08 21:29:02;;;;;;;3.22;1.27;;;;;;;-143.85;100.00;70650.75;5092020;28;20081;-80
2021/12/08 21:31:28;;;;;;;0.47;0.47;;;;;;;-143.85;100.00;70650.75;5093135;28;20072;-82
2021/12/08 21:33:54;;;;;;;0.85;0.85;;;;;;;-143.85;100.00;70650.75;5092279;28;20067;-81
2021/12/08 21:36:21;;;;;;;0.60;0.60;;;;;;;-143.85;100.00;70650.75;5092245;28;20024;-80
2021/12/08 21:38:47;;;;;;;0.95;0.95;;;;;;;-143.85;100.00;70650.75;5092123;28;20217;-81
2021/12/08 21:41:19;;;;;;;1.30;1.30;;;;;;;-143.85;100.00;70650.75;5092865;28;20430;-79
2021/12/08 21:43:48;;;;;;;0.95;0.95;;;;;;;-143.85;100.00;70650.75;5092747;28;20486;-81
2021/12/08 21:46:15;;;;;;;0.50;0.50;;;;;;;-143.85;100.00;70650.75;5092036;28;20024;-81
2021/12/08 21:48:41;;;;;;;1.40;1.40;;;;;;;-143.85;100.00;70650.75;5092103;28;20023;-78
2021/12/08 21:51:10;;;;;;;0.45;0.45;;;;;;;-143.85;100.00;70650.75;5091956;28;20411;-81
2021/12/08 21:53:37;;;;;;;1.55;1.55;;;;;;;-143.85;100.00;70650.75;5092297;28;20035;-80
2021/12/08 21:56:03;;;;;;;0.98;0.98;;;;;;;-143.85;100.00;70650.75;5092224;28;20066;-80
2021/12/08 21:58:30;;;;;;;0.55;0.55;;;;;;;-143.85;100.00;70650.75;5091773;28;20016;-81
2021/12/08 22:00:55;;;;;;;0.75;0.75;;;;;;;-143.85;100.00;70650.75;5091565;28;20123;-81
2021/12/08 22:03:22;;;;;;;2.20;2.10;;;;;;;-143.85;100.00;70650.75;5091906;28;20059;-80
2021/12/08 22:05:49;;;;;;;1.98;1.60;;;;;;;-143.85;100.00;70650.75;5091865;28;20036;-81
2021/12/08 22:08:16;;;;;;;0.95;0.95;;;;;;;-143.85;100.00;70650.75;5091608;28;20032;-79
2021/12/08 22:10:44;;;;;;;0.55;0.40;;;;;;;-143.85;100.00;70650.75;5091536;28;20024;-81
2021/12/08 22:13:11;;;;;;;0.88;0.85;;;;;;;-143.85;100.00;70650.75;5091649;28;20020;-81
2021/12/08 22:15:42;;;;;;;1.30;1.20;;;;;;;-143.85;100.00;70650.75;5092125;28;20036;-81
2021/12/08 22:18:10;;;;;;;1.13;1.05;;;;;;;-143.85;100.00;70650.75;5091624;28;20487;-81
2021/12/08 22:20:35;;;;;;;0.82;0.82;;;;;;;-143.85;100.00;70650.75;5091729;28;20020;-80
2021/12/08 22:23:01;;;;;;;0.40;0.40;;;;;;;-143.85;100.00;70650.75;5091595;28;20036;-81
2021/12/08 22:25:26;;;;;;;2.67;2.58;;;;;;;-143.85;100.00;70650.75;5091472;28;20050;-79
2021/12/08 22:27:52;;;;;;;3.72;3.53;;;;;;;-143.85;100.00;70650.75;5091315;28;20028;-79
2021/12/08 22:30:19;;;;;;;0.95;0.95;;;;;;;-143.85;100.00;70650.75;5091361;28;20122;-81
2021/12/08 22:32:46;;;;;;;0.57;0.57;;;;;;;-143.85;100.00;70650.75;5091810;28;20390;-81
2021/12/08 22:35:14;;;;;;;0.95;0.95;;;;;;;-143.85;100.00;70650.75;5091368;28;20407;-81
2021/12/08 22:37:40;;;;;;;2.03;1.50;;;;;;;-143.85;100.00;70650.75;5091590;28;20028;-79
2021/12/08 22:40:08;;;;;;;1.58;1.48;;;;;;;-143.85;100.00;70650.75;5091363;28;20055;-80
2021/12/08 22:42:35;;;;;;;3.88;2.33;;;;;;;-143.85;100.00;70650.75;5090590;28;20629;-78
2021/12/08 22:45:06;;;;;;;1.27;1.27;;;;;;;-143.85;100.00;70650.75;5092513;28;20111;-80
2021/12/08 22:47:43;;;;;;;2.00;1.58;;;;;;;-143.85;100.00;70650.75;5091863;28;20126;-80
2021/12/08 22:50:13;;;;;;;1.23;1.23;;;;;;;-143.85;100.00;70650.75;5091192;28;20036;-77
2021/12/08 22:52:39;;;;;;;0.98;0.98;;;;;;;-143.85;100.00;70650.75;5091791;28;20028;-81
2021/12/08 22:55:08;;;;;;;1.80;1.67;;;;;;;-143.85;100.00;70650.75;5095804;28;20024;-81
2021/12/08 22:57:33;;;;;;;1.70;1.60;;;;;;;-143.85;100.00;70650.75;5095303;28;20028;-80
2021/12/08 22:59:59;;;;;;;2.65;1.58;;;;;;;-143.85;100.00;70650.75;5095783;28;20034;-80
2021/12/08 23:02:24;;;;;;;0.98;0.98;;;;;;;-143.85;100.00;70650.75;5095222;28;20034;-81
2021/12/08 23:04:50;;;;;;;1.17;1.17;;;;;;;-143.85;100.00;70650.75;5096943;28;20028;-80
2021/12/08 23:07:16;;;;;;;2.20;2.10;;;;;;;-143.85;100.00;70650.75;5095079;28;20024;-78
2021/12/08 23:09:41;;;;;;;1.27;1.27;;;;;;;-143.85;100.00;70650.75;5095129;28;20069;-81
2021/12/08 23:12:07;;;;;;;1.52;1.52;;;;;;;-143.85;100.00;70650.75;5094958;28;20028;-79
2021/12/08 23:14:33;;;;;;;1.73;1.63;;;;;;;-143.85;100.00;70650.75;5095512;28;20379;-79
2021/12/08 23:16:59;;;;;;;0.90;0.90;;;;;;;-143.85;100.00;70650.75;5095103;28;20053;-80
2021/12/08 23:19:29;;;;;;;0.93;0.93;;;;;;;-143.85;100.00;70650.75;5095243;28;20475;-81
2021/12/08 23:21:54;;;;;;;0.50;0.30;;;;;;;-143.85;100.00;70650.75;5094835;28;20020;-81
2021/12/08 23:24:20;;;;;;;1.20;1.20;;;;;;;-143.85;100.00;70650.75;5094588;28;20381;-81
2021/12/08 23:26:46;;;;;;;1.13;1.08;;;;;;;-143.85;100.00;70650.75;5095056;28;20031;-81
2021/12/08 23:29:14;;;;;;;1.35;1.30;;;;;;;-143.85;100.00;70650.75;5094516;28;20024;-81
2021/12/08 23:31:41;;;;;;;1.17;1.17;;;;;;;-143.85;100.00;70650.75;5094375;28;20069;-80
2021/12/08 23:34:08;;;;;;;2.03;1.88;;;;;;;-143.85;100.00;70650.75;5094367;28;20376;-80
2021/12/08 23:36:50;;;;;;;1.67;1.58;;;;;;;-143.85;100.00;70650.75;5094584;28;20032;-79
2021/12/08 23:39:24;;;;;;;1.63;1.55;;;;;;;-143.85;100.00;70650.75;5095965;28;20077;-82
2021/12/08 23:41:54;;;;;;;0.80;0.80;;;;;;;-143.85;100.00;70650.75;5094633;28;20038;-81
2021/12/08 23:44:20;;;;;;;1.35;1.35;;;;;;;-143.85;100.00;70650.75;5094703;28;20032;-80
2021/12/08 23:46:46;;;;;;;2.53;2.42;;;;;;;-143.85;100.00;70650.75;5095116;28;20024;-81
2021/12/08 23:49:11;;;;;;;1.55;1.55;;;;;;;-143.85;100.00;70650.75;5094807;28;20027;-80
2021/12/08 23:51:37;;;;;;;0.50;0.50;;;;;;;-143.85;100.00;70650.75;5095005;28;20032;-80
2021/12/08 23:54:05;;;;;;;1.65;1.58;;;;;;;-143.85;100.00;70650.75;5095618;28;20495;-82
2021/12/08 23:56:33;;;;;;;2.28;1.77;;;;;;;-143.85;100.00;70650.75;5094272;28;20073;-80
2021/12/08 23:59:03;;;;;;;1.13;1.13;;;;;;;-143.85;100.00;70650.75;5094710;28;20051;-80
